sensor_id;sensor_type;location;lat;lon;timestamp;pressure;altitude;pressure_sealevel;temperature;humidity
39823;BME280;25499;53.958;10.970;2023-02-23T07:14:11;101047.44;;;5.40;100.00
39823;BME280;25499;53.958;10.970;2023-02-23T07:16:37;101051.09;;;5.51;100.00
39823;BME280;25499;53.958;10.970;2023-02-23T07:19:04;101048.47;;;5.48;100.00
39823;BME280;25499;53.958;10.970;2023-02-23T07:21:30;101042.31;;;5.43;100.00
39823;BME280;25499;53.958;10.970;2023-02-23T07:23:56;101057.22;;;5.53;100.00
39823;BME280;25499;53.958;10.970;2023-02-23T07:26:22;101056.28;;;5.51;100.00
39823;BME280;25499;53.958;10.970;2023-02-23T07:28:48;101052.13;;;5.58;100.00
39823;BME280;25499;53.958;10.970;2023-02-23T07:31:13;101045.94;;;5.51;100.00
39823;BME280;25499;53.958;10.970;2023-02-23T07:33:39;101053.66;;;5.48;100.00
39823;BME280;25499;53.958;10.970;2023-02-23T07:36:04;101064.09;;;5.54;100.00
39823;BME280;25499;53.958;10.970;2023-02-23T07:38:30;101061.63;;;5.59;100.00
39823;BME280;25499;53.958;10.970;2023-02-23T07:40:55;101069.44;;;5.62;100.00
39823;BME280;25499;53.958;10.970;2023-02-23T07:43:21;101072.84;;;5.61;100.00
39823;BME280;25499;53.958;10.970;2023-02-23T07:45:47;101063.41;;;5.63;100.00
39823;BME280;25499;53.958;10.970;2023-02-23T07:48:13;101075.53;;;5.66;100.00
39823;BME280;25499;53.958;10.970;2023-02-23T07:50:40;101066.97;;;5.68;100.00
39823;BME280;25499;53.958;10.970;2023-02-23T07:53:06;101074.00;;;5.74;100.00
39823;BME280;25499;53.958;10.970;2023-02-23T07:55:31;101069.41;;;5.60;100.00
39823;BME280;25499;53.958;10.970;2023-02-23T07:57:57;101071.28;;;5.68;100.00
39823;BME280;25499;53.958;10.970;2023-02-23T08:00:23;101064.19;;;5.59;100.00
39823;BME280;25499;53.958;10.970;2023-02-23T08:02:50;101076.59;;;5.74;100.00
39823;BME280;25499;53.958;10.970;2023-02-23T08:05:18;101073.19;;;5.76;100.00
39823;BME280;25499;53.958;10.970;2023-02-23T08:07:44;101073.94;;;5.71;100.00
39823;BME280;25499;53.958;10.970;2023-02-23T08:10:10;101075.81;;;5.78;100.00
39823;BME280;25499;53.958;10.970;2023-02-23T08:12:36;101079.19;;;5.74;100.00
39823;BME280;25499;53.958;10.970;2023-02-23T08:15:03;101071.44;;;5.74;100.00
39823;BME280;25499;53.958;10.970;2023-02-23T08:17:35;101071.13;;;5.61;100.00
39823;BME280;25499;53.958;10.970;2023-02-23T08:20:03;101085.81;;;5.63;100.00
39823;BME280;25499;53.958;10.970;2023-02-23T08:22:29;101078.88;;;5.61;100.00
39823;BME280;25499;53.958;10.970;2023-02-23T08:24:55;101085.88;;;5.66;100.00
39823;BME280;25499;53.958;10.970;2023-02-23T08:27:20;101084.91;;;5.60;100.00
39823;BME280;25499;53.958;10.970;2023-02-23T08:29:46;101091.84;;;5.63;100.00
39823;BME280;25499;53.958;10.970;2023-02-23T08:32:11;101085.75;;;5.61;100.00
39823;BME280;25499;53.958;10.970;2023-02-23T08:34:38;101092.72;;;5.64;100.00
39823;BME280;25499;53.958;10.970;2023-02-23T08:37:04;101096.28;;;5.69;100.00
39823;BME280;25499;53.958;10.970;2023-02-23T08:39:30;101097.09;;;5.68;100.00
39823;BME280;25499;53.958;10.970;2023-02-23T08:41:55;101099.16;;;5.83;100.00
39823;BME280;25499;53.958;10.970;2023-02-23T08:44:21;101094.94;;;5.86;100.00
39823;BME280;25499;53.958;10.970;2023-02-23T08:46:46;101100.66;;;5.73;100.00
39823;BME280;25499;53.958;10.970;2023-02-23T08:49:12;101098.28;;;5.82;100.00
39823;BME280;25499;53.958;10.970;2023-02-23T08:51:37;101102.53;;;5.80;100.00
39823;BME280;25499;53.958;10.970;2023-02-23T08:54:03;101103.53;;;5.87;100.00
39823;BME280;25499;53.958;10.970;2023-02-23T08:56:28;101107.88;;;5.88;100.00
39823;BME280;25499;53.958;10.970;2023-02-23T08:58:54;101107.88;;;5.88;100.00
39823;BME280;25499;53.958;10.970;2023-02-23T09:01:20;101108.09;;;5.97;100.00
39823;BME280;25499;53.958;10.970;2023-02-23T09:03:46;101105.56;;;5.98;100.00
39823;BME280;25499;53.958;10.970;2023-02-23T09:06:15;101108.19;;;6.00;100.00
39823;BME280;25499;53.958;10.970;2023-02-23T09:08:41;101109.03;;;6.01;100.00
39823;BME280;25499;53.958;10.970;2023-02-23T09:11:07;101109.94;;;6.01;100.00
39823;BME280;25499;53.958;10.970;2023-02-23T09:13:34;101110.72;;;5.98;100.00
39823;BME280;25499;53.958;10.970;2023-02-23T09:16:00;101113.44;;;6.05;100.00
39823;BME280;25499;53.958;10.970;2023-02-23T09:18:30;101123.91;;;6.09;100.00
39823;BME280;25499;53.958;10.970;2023-02-23T09:20:57;101111.72;;;6.05;100.00
39823;BME280;25499;53.958;10.970;2023-02-23T09:23:26;101114.66;;;6.22;100.00
39823;BME280;25499;53.958;10.970;2023-02-23T09:25:52;101108.47;;;6.14;100.00
39823;BME280;25499;53.958;10.970;2023-02-23T09:28:19;101111.16;;;6.19;100.00
39823;BME280;25499;53.958;10.970;2023-02-23T09:30:45;101114.66;;;6.22;100.00
39823;BME280;25499;53.958;10.970;2023-02-23T09:33:12;101117.38;;;6.28;100.00
39823;BME280;25499;53.958;10.970;2023-02-23T09:35:37;101124.38;;;6.34;100.00
39823;BME280;25499;53.958;10.970;2023-02-23T09:38:04;101114.94;;;6.36;100.00
39823;BME280;25499;53.958;10.970;2023-02-23T09:40:42;101116.75;;;6.40;100.00
39823;BME280;25499;53.958;10.970;2023-02-23T09:43:24;101125.56;;;6.50;100.00
39823;BME280;25499;53.958;10.970;2023-02-23T09:46:29;101125.66;;;6.54;100.00
39823;BME280;25499;53.958;10.970;2023-02-23T09:49:02;101123.88;;;6.50;100.00
39823;BME280;25499;53.958;10.970;2023-02-23T09:51:29;101124.00;;;6.58;100.00
39823;BME280;25499;53.958;10.970;2023-02-23T09:53:58;101130.25;;;6.69;100.00
39823;BME280;25499;53.958;10.970;2023-02-23T09:56:33;101128.63;;;6.75;100.00
39823;BME280;25499;53.958;10.970;2023-02-23T09:59:01;101130.38;;;6.76;100.00
39823;BME280;25499;53.958;10.970;2023-02-23T10:04:27;101136.41;;;6.76;100.00
39823;BME280;25499;53.958;10.970;2023-02-23T10:21:12;101131.38;;;6.84;100.00
39823;BME280;25499;53.958;10.970;2023-02-23T10:23:47;101133.91;;;6.79;100.00
39823;BME280;25499;53.958;10.970;2023-02-23T10:26:22;101129.50;;;6.77;100.00
39823;BME280;25499;53.958;10.970;2023-02-23T10:28:49;101132.28;;;6.86;100.00
39823;BME280;25499;53.958;10.970;2023-02-23T10:31:27;101128.78;;;6.82;100.00
39823;BME280;25499;53.958;10.970;2023-02-23T10:33:57;101131.38;;;6.84;100.00
39823;BME280;25499;53.958;10.970;2023-02-23T10:39:06;101143.59;;;6.91;100.00
39823;BME280;25499;53.958;10.970;2023-02-23T10:41:33;101141.75;;;6.85;100.00
39823;BME280;25499;53.958;10.970;2023-02-23T10:43:59;101141.06;;;6.96;100.00
39823;BME280;25499;53.958;10.970;2023-02-23T10:46:30;101135.78;;;6.88;100.00
39823;BME280;25499;53.958;10.970;2023-02-23T10:48:59;101134.97;;;6.92;100.00
39823;BME280;25499;53.958;10.970;2023-02-23T10:51:29;101134.03;;;6.88;100.00
39823;BME280;25499;53.958;10.970;2023-02-23T10:53:56;101139.19;;;6.87;100.00
39823;BME280;25499;53.958;10.970;2023-02-23T10:56:22;101141.00;;;6.91;100.00
39823;BME280;25499;53.958;10.970;2023-02-23T10:58:55;101134.91;;;6.89;100.00
39823;BME280;25499;53.958;10.970;2023-02-23T11:01:40;101143.66;;;6.96;100.00
39823;BME280;25499;53.958;10.970;2023-02-23T11:04:35;101144.59;;;6.98;100.00
39823;BME280;25499;53.958;10.970;2023-02-23T11:07:12;101143.63;;;6.94;100.00
39823;BME280;25499;53.958;10.970;2023-02-23T11:09:43;101139.44;;;6.99;100.00
39823;BME280;25499;53.958;10.970;2023-02-23T11:14:55;101140.25;;;6.98;100.00
39823;BME280;25499;53.958;10.970;2023-02-23T11:17:29;101130.69;;;6.93;100.00
39823;BME280;25499;53.958;10.970;2023-02-23T11:20:28;101134.16;;;6.95;100.00
39823;BME280;25499;53.958;10.970;2023-02-23T11:22:56;101132.38;;;6.92;100.00
39823;BME280;25499;53.958;10.970;2023-02-23T11:25:29;101128.16;;;6.97;100.00
39823;BME280;25499;53.958;10.970;2023-02-23T11:27:56;101131.66;;;7.01;100.00
39823;BME280;25499;53.958;10.970;2023-02-23T11:30:28;101123.91;;;7.01;100.00
39823;BME280;25499;53.958;10.970;2023-02-23T11:32:58;101130.97;;;7.09;100.00
39823;BME280;25499;53.958;10.970;2023-02-23T11:35:33;101124.16;;;7.15;100.00
39823;BME280;25499;53.958;10.970;2023-02-23T11:38:21;101126.84;;;7.21;100.00
39823;BME280;25499;53.958;10.970;2023-02-23T11:41:01;101120.84;;;7.23;100.00
39823;BME280;25499;53.958;10.970;2023-02-23T11:43:27;101121.63;;;7.19;100.00
39823;BME280;25499;53.958;10.970;2023-02-23T11:45:56;101111.28;;;7.19;100.00
39823;BME280;25499;53.958;10.970;2023-02-23T11:48:34;101110.41;;;7.19;100.00
39823;BME280;25499;53.958;10.970;2023-02-23T11:51:04;101107.00;;;7.21;100.00
39823;BME280;25499;53.958;10.970;2023-02-23T11:53:48;101100.19;;;7.26;100.00
39823;BME280;25499;53.958;10.970;2023-02-23T11:56:18;101092.44;;;7.29;100.00
39823;BME280;25499;53.958;10.970;2023-02-23T11:58:59;101093.34;;;7.30;100.00
39823;BME280;25499;53.958;10.970;2023-02-23T12:01:47;101080.53;;;7.41;100.00
39823;BME280;25499;53.958;10.970;2023-02-23T12:04:25;101089.16;;;7.38;100.00
39823;BME280;25499;53.958;10.970;2023-02-23T12:07:27;101077.13;;;7.42;100.00
39823;BME280;25499;53.958;10.970;2023-02-23T12:20:55;101063.69;;;7.13;100.00
39823;BME280;25499;53.958;10.970;2023-02-23T12:23:25;101050.03;;;7.20;100.00
39823;BME280;25499;53.958;10.970;2023-02-23T12:26:04;101055.94;;;7.13;100.00
39823;BME280;25499;53.958;10.970;2023-02-23T12:28:37;101051.63;;;7.13;100.00
39823;BME280;25499;53.958;10.970;2023-02-23T12:31:26;101047.28;;;7.10;100.00
39823;BME280;25499;53.958;10.970;2023-02-23T12:34:00;101049.81;;;7.07;100.00
39823;BME280;25499;53.958;10.970;2023-02-23T12:36:43;101042.16;;;7.14;100.00
39823;BME280;25499;53.958;10.970;2023-02-23T12:47:28;101046.31;;;7.04;100.00
39823;BME280;25499;53.958;10.970;2023-02-23T12:52:57;101055.78;;;7.03;100.00
39823;BME280;25499;53.958;10.970;2023-02-23T12:55:38;101053.19;;;7.02;100.00
39823;BME280;25499;53.958;10.970;2023-02-23T13:06:57;101041.97;;;7.01;100.00
39823;BME280;25499;53.958;10.970;2023-02-23T13:18:24;101030.09;;;7.16;100.00
39823;BME280;25499;53.958;10.970;2023-02-23T13:21:07;101034.31;;;7.10;100.00
39823;BME280;25499;53.958;10.970;2023-02-23T13:23:54;101032.69;;;7.16;100.00
39823;BME280;25499;53.958;10.970;2023-02-23T13:32:09;101022.19;;;7.06;100.00
39823;BME280;25499;53.958;10.970;2023-02-23T13:34:56;101023.09;;;7.10;100.00
39823;BME280;25499;53.958;10.970;2023-02-23T13:37:32;101017.16;;;7.16;100.00
39823;BME280;25499;53.958;10.970;2023-02-23T13:56:25;101011.00;;;7.09;100.00
39823;BME280;25499;53.958;10.970;2023-02-23T13:59:00;101015.28;;;7.07;100.00
39823;BME280;25499;53.958;10.970;2023-02-23T14:01:36;101015.31;;;7.08;100.00
39823;BME280;25499;53.958;10.970;2023-02-23T14:04:04;101012.72;;;7.08;100.00
39823;BME280;25499;53.958;10.970;2023-02-23T14:06:38;101023.13;;;7.12;100.00
39823;BME280;25499;53.958;10.970;2023-02-23T14:09:18;101018.00;;;7.13;100.00
39823;BME280;25499;53.958;10.970;2023-02-23T14:12:04;101017.13;;;7.14;100.00
39823;BME280;25499;53.958;10.970;2023-02-23T14:14:42;101025.78;;;7.15;100.00
39823;BME280;25499;53.958;10.970;2023-02-23T14:17:09;101019.69;;;7.13;100.00
39823;BME280;25499;53.958;10.970;2023-02-23T14:19:43;101025.84;;;7.21;100.00
39823;BME280;25499;53.958;10.970;2023-02-23T14:22:14;101019.72;;;7.16;100.00
39823;BME280;25499;53.958;10.970;2023-02-23T14:24:41;101021.50;;;7.17;100.00
39823;BME280;25499;53.958;10.970;2023-02-23T14:29:40;101021.50;;;7.18;100.00
39823;BME280;25499;53.958;10.970;2023-02-23T14:34:58;101016.25;;;7.14;100.00
39823;BME280;25499;53.958;10.970;2023-02-23T14:40:00;101024.06;;;7.17;100.00
39823;BME280;25499;53.958;10.970;2023-02-23T14:42:28;101022.28;;;7.14;100.00
39823;BME280;25499;53.958;10.970;2023-02-23T14:44:55;101019.69;;;7.13;100.00
39823;BME280;25499;53.958;10.970;2023-02-23T14:47:25;101020.53;;;7.12;100.00
39823;BME280;25499;53.958;10.970;2023-02-23T14:50:00;101020.41;;;7.04;100.00
39823;BME280;25499;53.958;10.970;2023-02-23T14:52:34;101025.56;;;7.02;100.00
39823;BME280;25499;53.958;10.970;2023-02-23T14:57:38;101012.66;;;7.05;100.00
39823;BME280;25499;53.958;10.970;2023-02-23T15:00:31;101015.38;;;7.12;100.00
39823;BME280;25499;53.958;10.970;2023-02-23T15:03:01;101013.66;;;7.14;100.00
39823;BME280;25499;53.958;10.970;2023-02-23T15:05:41;101006.69;;;7.08;100.00
39823;BME280;25499;53.958;10.970;2023-02-23T15:08:08;101014.53;;;7.14;100.00
39823;BME280;25499;53.958;10.970;2023-02-23T15:10:40;101002.44;;;7.12;100.00
39823;BME280;25499;53.958;10.970;2023-02-23T15:13:10;101008.38;;;7.07;100.00
39823;BME280;25499;53.958;10.970;2023-02-23T15:15:40;101005.78;;;7.07;100.00
39823;BME280;25499;53.958;10.970;2023-02-23T15:18:18;101005.84;;;7.10;100.00
39823;BME280;25499;53.958;10.970;2023-02-23T15:20:47;101010.16;;;7.10;100.00
39823;BME280;25499;53.958;10.970;2023-02-23T15:23:17;101012.72;;;7.08;100.00
39823;BME280;25499;53.958;10.970;2023-02-23T15:25:43;101009.22;;;7.05;100.00
39823;BME280;25499;53.958;10.970;2023-02-23T15:28:29;101009.28;;;7.11;100.00
39823;BME280;25499;53.958;10.970;2023-02-23T15:30:59;101013.63;;;7.10;100.00
39823;BME280;25499;53.958;10.970;2023-02-23T15:33:25;101013.56;;;7.07;100.00
39823;BME280;25499;53.958;10.970;2023-02-23T15:38:46;101015.31;;;7.08;100.00
39823;BME280;25499;53.958;10.970;2023-02-23T15:43:44;101013.50;;;7.03;100.00
39823;BME280;25499;53.958;10.970;2023-02-23T15:46:23;101017.78;;;6.99;100.00
39823;BME280;25499;53.958;10.970;2023-02-23T15:48:52;101018.72;;;7.06;100.00
39823;BME280;25499;53.958;10.970;2023-02-23T15:51:38;101011.03;;;7.10;100.00
39823;BME280;25499;53.958;10.970;2023-02-23T15:54:18;101010.94;;;7.04;100.00
39823;BME280;25499;53.958;10.970;2023-02-23T15:56:53;101010.94;;;7.03;100.00
39823;BME280;25499;53.958;10.970;2023-02-23T15:59:30;101004.97;;;7.08;100.00
39823;BME280;25499;53.958;10.970;2023-02-23T16:01:59;101004.94;;;7.07;100.00
39823;BME280;25499;53.958;10.970;2023-02-23T16:04:38;101003.16;;;7.03;100.00
39823;BME280;25499;53.958;10.970;2023-02-23T16:09:50;101007.44;;;7.02;100.00
39823;BME280;25499;53.958;10.970;2023-02-23T16:12:27;101011.88;;;7.08;100.00
39823;BME280;25499;53.958;10.970;2023-02-23T16:15:00;101012.72;;;7.08;100.00
39823;BME280;25499;53.958;10.970;2023-02-23T16:17:28;101004.91;;;7.05;100.00
39823;BME280;25499;53.958;10.970;2023-02-23T16:22:46;101001.47;;;7.05;100.00
39823;BME280;25499;53.958;10.970;2023-02-23T16:25:14;101011.81;;;7.05;100.00
39823;BME280;25499;53.958;10.970;2023-02-23T16:27:42;101004.88;;;7.04;100.00
39823;BME280;25499;53.958;10.970;2023-02-23T16:30:32;101007.44;;;7.02;100.00
39823;BME280;25499;53.958;10.970;2023-02-23T16:33:10;101014.25;;;6.97;100.00
39823;BME280;25499;53.958;10.970;2023-02-23T16:35:52;101012.53;;;6.96;100.00
39823;BME280;25499;53.958;10.970;2023-02-23T16:40:48;101015.84;;;6.86;100.00
39823;BME280;25499;53.958;10.970;2023-02-23T16:43:14;101009.75;;;6.84;100.00
39823;BME280;25499;53.958;10.970;2023-02-23T16:45:41;101016.75;;;6.89;100.00
39823;BME280;25499;53.958;10.970;2023-02-23T16:48:16;101013.28;;;6.87;100.00
39823;BME280;25499;53.958;10.970;2023-02-23T16:50:42;101014.19;;;6.91;100.00
39823;BME280;25499;53.958;10.970;2023-02-23T16:53:12;101014.13;;;6.88;100.00
39823;BME280;25499;53.958;10.970;2023-02-23T16:55:58;101003.88;;;6.93;100.00
39823;BME280;25499;53.958;10.970;2023-02-23T16:58:27;101009.06;;;6.96;100.00
39823;BME280;25499;53.958;10.970;2023-02-23T17:00:54;101009.09;;;6.97;100.00
39823;BME280;25499;53.958;10.970;2023-02-23T17:03:24;101009.94;;;6.95;100.00
39823;BME280;25499;53.958;10.970;2023-02-23T17:05:50;101015.97;;;6.95;100.00
39823;BME280;25499;53.958;10.970;2023-02-23T17:08:16;101024.69;;;7.02;100.00
39823;BME280;25499;53.958;10.970;2023-02-23T17:10:44;101025.53;;;7.01;100.00
39823;BME280;25499;53.958;10.970;2023-02-23T17:13:24;101018.44;;;6.89;100.00
39823;BME280;25499;53.958;10.970;2023-02-23T17:15:52;101023.63;;;6.89;100.00
39823;BME280;25499;53.958;10.970;2023-02-23T17:18:19;101033.13;;;6.88;100.00
39823;BME280;25499;53.958;10.970;2023-02-23T17:20:50;101036.53;;;6.86;100.00
39823;BME280;25499;53.958;10.970;2023-02-23T17:23:16;101033.69;;;6.70;100.00
39823;BME280;25499;53.958;10.970;2023-02-23T17:25:41;101034.66;;;6.79;100.00
39823;BME280;25499;53.958;10.970;2023-02-23T17:28:07;101039.00;;;6.80;100.00
39823;BME280;25499;53.958;10.970;2023-02-23T17:30:34;101032.00;;;6.72;100.00
39823;BME280;25499;53.958;10.970;2023-02-23T17:33:01;101040.69;;;6.76;100.00
39823;BME280;25499;53.958;10.970;2023-02-23T17:35:27;101045.19;;;6.88;100.00
39823;BME280;25499;53.958;10.970;2023-02-23T17:37:53;101045.00;;;6.76;100.00
39823;BME280;25499;53.958;10.970;2023-02-23T17:40:23;101036.22;;;6.67;100.00
39823;BME280;25499;53.958;10.970;2023-02-23T17:43:02;101038.63;;;6.58;100.00
39823;BME280;25499;53.958;10.970;2023-02-23T17:45:29;101042.22;;;6.66;100.00
39823;BME280;25499;53.958;10.970;2023-02-23T17:47:56;101038.59;;;6.57;100.00
39823;BME280;25499;53.958;10.970;2023-02-23T17:50:23;101041.34;;;6.64;100.00
39823;BME280;25499;53.958;10.970;2023-02-23T17:52:52;101036.84;;;6.54;100.00
39823;BME280;25499;53.958;10.970;2023-02-23T17:55:18;101028.94;;;6.46;100.00
39823;BME280;25499;53.958;10.970;2023-02-23T17:57:44;101029.16;;;6.57;100.00
39823;BME280;25499;53.958;10.970;2023-02-23T18:00:11;101021.94;;;6.41;100.00
39823;BME280;25499;53.958;10.970;2023-02-23T18:02:39;101020.78;;;6.23;100.00
39823;BME280;25499;53.958;10.970;2023-02-23T18:05:07;101016.34;;;6.18;100.00
39823;BME280;25499;53.958;10.970;2023-02-23T18:07:32;101009.19;;;6.03;100.00
39823;BME280;25499;53.958;10.970;2023-02-23T18:09:58;101006.47;;;5.96;100.00
39823;BME280;25499;53.958;10.970;2023-02-23T18:12:23;100999.63;;;6.00;100.00
39823;BME280;25499;53.958;10.970;2023-02-23T18:14:49;101006.56;;;6.01;100.00
39823;BME280;25499;53.958;10.970;2023-02-23T18:17:14;101008.53;;;6.14;100.00
39823;BME280;25499;53.958;10.970;2023-02-23T18:19:41;101008.53;;;6.16;100.00
39823;BME280;25499;53.958;10.970;2023-02-23T18:22:06;101003.38;;;6.16;100.00
39823;BME280;25499;53.958;10.970;2023-02-23T18:24:32;101009.34;;;6.12;100.00
39823;BME280;25499;53.958;10.970;2023-02-23T18:26:58;101008.53;;;6.14;100.00
39823;BME280;25499;53.958;10.970;2023-02-23T18:29:31;101001.50;;;6.07;99.71
39823;BME280;25499;53.958;10.970;2023-02-23T18:31:59;101008.31;;;6.04;98.29
39823;BME280;25499;53.958;10.970;2023-02-23T18:34:26;100985.66;;;5.92;96.56
39823;BME280;25499;53.958;10.970;2023-02-23T18:36:53;100977.19;;;5.56;95.03
39823;BME280;25499;53.958;10.970;2023-02-23T18:39:18;100978.09;;;5.57;94.28
39823;BME280;25499;53.958;10.970;2023-02-23T18:41:44;100969.22;;;5.46;93.22
39823;BME280;25499;53.958;10.970;2023-02-23T18:44:12;100967.94;;;5.25;93.34
39823;BME280;25499;53.958;10.970;2023-02-23T18:46:39;100979.38;;;5.36;93.96
39823;BME280;25499;53.958;10.970;2023-02-23T18:49:05;100975.06;;;5.37;93.58
39823;BME280;25499;53.958;10.970;2023-02-23T18:51:31;100974.84;;;5.26;93.36
39823;BME280;25499;53.958;10.970;2023-02-23T18:53:57;100977.94;;;5.11;93.61
39823;BME280;25499;53.958;10.970;2023-02-23T18:56:25;100996.91;;;5.13;93.92
39823;BME280;25499;53.958;10.970;2023-02-23T18:58:57;100996.09;;;5.16;93.47
39823;BME280;25499;53.958;10.970;2023-02-23T19:01:25;100994.50;;;5.21;93.72
39823;BME280;25499;53.958;10.970;2023-02-23T19:03:53;100989.25;;;5.16;93.61
39823;BME280;25499;53.958;10.970;2023-02-23T19:06:21;100983.84;;;5.07;93.84
39823;BME280;25499;53.958;10.970;2023-02-23T19:08:49;100978.84;;;4.77;92.80
39823;BME280;25499;53.958;10.970;2023-02-23T19:11:26;100977.28;;;4.83;93.13
39823;BME280;25499;53.958;10.970;2023-02-23T19:13:54;100980.59;;;4.78;93.48
39823;BME280;25499;53.958;10.970;2023-02-23T19:16:19;101000.31;;;4.76;93.50
39823;BME280;25499;53.958;10.970;2023-02-23T19:18:47;100999.56;;;4.80;93.76
39823;BME280;25499;53.958;10.970;2023-02-23T19:21:14;101008.84;;;4.73;94.19
39823;BME280;25499;53.958;10.970;2023-02-23T19:23:39;101002.06;;;4.77;93.68
39823;BME280;25499;53.958;10.970;2023-02-23T19:26:05;100991.53;;;4.67;93.50
39823;BME280;25499;53.958;10.970;2023-02-23T19:28:30;101004.53;;;4.72;93.81
39823;BME280;25499;53.958;10.970;2023-02-23T19:31:16;100993.16;;;4.64;93.42
39823;BME280;25499;53.958;10.970;2023-02-23T19:33:46;100990.41;;;4.58;93.01
39823;BME280;25499;53.958;10.970;2023-02-23T19:36:13;100995.75;;;4.64;93.40
39823;BME280;25499;53.958;10.970;2023-02-23T19:38:40;100994.19;;;4.37;93.45
39823;BME280;25499;53.958;10.970;2023-02-23T19:41:15;100996.84;;;4.40;93.97
39823;BME280;25499;53.958;10.970;2023-02-23T19:43:40;101009.94;;;4.48;94.02
39823;BME280;25499;53.958;10.970;2023-02-23T19:46:09;101003.34;;;4.26;94.05
39823;BME280;25499;53.958;10.970;2023-02-23T19:48:35;101001.59;;;4.25;93.91
39823;BME280;25499;53.958;10.970;2023-02-23T19:51:01;101006.84;;;4.28;94.09
39823;BME280;25499;53.958;10.970;2023-02-23T19:53:27;100993.88;;;4.25;93.63
39823;BME280;25499;53.958;10.970;2023-02-23T19:56:00;100999.19;;;4.31;93.58
39823;BME280;25499;53.958;10.970;2023-02-23T19:58:26;101010.06;;;4.21;93.62
39823;BME280;25499;53.958;10.970;2023-02-23T20:00:56;101004.91;;;4.21;93.88
39823;BME280;25499;53.958;10.970;2023-02-23T20:03:22;101009.16;;;4.19;93.67
39823;BME280;25499;53.958;10.970;2023-02-23T20:05:56;101005.56;;;4.12;93.76
39823;BME280;25499;53.958;10.970;2023-02-23T20:08:23;101016.91;;;4.19;93.77
39823;BME280;25499;53.958;10.970;2023-02-23T20:10:49;101016.53;;;4.05;93.71
39823;BME280;25499;53.958;10.970;2023-02-23T20:13:15;101013.94;;;4.05;94.30
39823;BME280;25499;53.958;10.970;2023-02-23T20:15:42;101018.09;;;4.00;94.42
39823;BME280;25499;53.958;10.970;2023-02-23T20:18:08;101009.28;;;3.91;94.07
39823;BME280;25499;53.958;10.970;2023-02-23T20:20:34;101007.31;;;3.83;93.63
39823;BME280;25499;53.958;10.970;2023-02-23T20:22:59;100999.50;;;3.80;93.94
39823;BME280;25499;53.958;10.970;2023-02-23T20:25:25;101006.41;;;3.81;93.27
39823;BME280;25499;53.958;10.970;2023-02-23T20:27:52;101008.38;;;3.89;93.36
39823;BME280;25499;53.958;10.970;2023-02-23T20:30:20;101012.56;;;3.86;93.27
39823;BME280;25499;53.958;10.970;2023-02-23T20:32:45;101005.84;;;3.91;92.55
39823;BME280;25499;53.958;10.970;2023-02-23T20:35:17;101002.88;;;3.77;92.76
39823;BME280;25499;53.958;10.970;2023-02-23T20:37:43;100999.13;;;3.66;92.82
39823;BME280;25499;53.958;10.970;2023-02-23T20:40:13;100996.69;;;3.70;92.52
39823;BME280;25499;53.958;10.970;2023-02-23T20:42:48;100998.84;;;3.57;92.46
39823;BME280;25499;53.958;10.970;2023-02-23T20:45:19;100996.50;;;3.64;92.50
39823;BME280;25499;53.958;10.970;2023-02-23T20:47:46;100997.16;;;3.57;92.60
39823;BME280;25499;53.958;10.970;2023-02-23T20:50:16;100997.97;;;3.56;92.54
39823;BME280;25499;53.958;10.970;2023-02-23T20:52:41;101005.06;;;3.63;92.77
39823;BME280;25499;53.958;10.970;2023-02-23T20:55:08;101002.75;;;3.72;92.59
39823;BME280;25499;53.958;10.970;2023-02-23T20:57:34;100986.34;;;3.69;92.12
39823;BME280;25499;53.958;10.970;2023-02-23T21:00:00;100994.22;;;3.75;92.04
39823;BME280;25499;53.958;10.970;2023-02-23T21:02:37;100985.84;;;3.82;91.90
39823;BME280;25499;53.958;10.970;2023-02-23T21:05:05;100981.38;;;3.77;91.39
39823;BME280;25499;53.958;10.970;2023-02-23T21:07:34;100977.13;;;3.77;90.83
39823;BME280;25499;53.958;10.970;2023-02-23T21:09:59;100966.84;;;3.77;91.04
39823;BME280;25499;53.958;10.970;2023-02-23T21:12:26;100971.03;;;3.75;91.01
39823;BME280;25499;53.958;10.970;2023-02-23T21:14:52;100962.94;;;3.61;90.88
39823;BME280;25499;53.958;10.970;2023-02-23T21:17:18;100962.16;;;3.64;90.50
39823;BME280;25499;53.958;10.970;2023-02-23T21:19:43;100957.44;;;3.79;89.94
39823;BME280;25499;53.958;10.970;2023-02-23T21:22:09;100949.66;;;3.78;89.42
39823;BME280;25499;53.958;10.970;2023-02-23T21:24:38;100933.66;;;3.58;88.96
